Time;durP1;ratioP1;P1;durP2;ratioP2;P2;SDS_P1;SDS_P2;PMS_P1;PMS_P2;Temp;Humidity;BMP_temperature;BMP_pressure;BME280_temperature;BME280_humidity;BME280_pressure;Samples;Min_cycle;Max_cycle;Signal;HPM_P1;HPM_P2
2022/01/04 00:04:48;;;;;;;4.68;3.20;;;;;;;7.74;71.14;95679.16;10297759;28;97741;-78
2022/01/04 00:09:53;;;;;;;5.28;3.50;;;;;;;7.74;70.76;95673.16;10291739;28;98071;-78
2022/01/04 00:14:56;;;;;;;3.78;2.95;;;;;;;7.70;71.01;95656.19;10297466;28;96737;-78
2022/01/04 00:19:59;;;;;;;5.15;3.22;;;;;;;7.69;70.92;95655.38;10297810;28;96860;-78
2022/01/04 00:25:03;;;;;;;4.93;3.20;;;;;;;7.71;72.00;95663.03;10295396;28;97149;-78
2022/01/04 00:30:09;;;;;;;6.75;3.80;;;;;;;7.70;71.61;95666.56;10295084;28;97126;-78
2022/01/04 00:35:12;;;;;;;5.75;2.95;;;;;;;7.64;72.13;95656.78;10298640;28;97988;-78
2022/01/04 00:40:16;;;;;;;6.20;2.90;;;;;;;7.61;72.68;95647.47;10290038;28;96804;-78
2022/01/04 00:45:19;;;;;;;4.93;3.30;;;;;;;7.58;72.85;95638.19;10294500;28;96696;-78
2022/01/04 00:50:23;;;;;;;4.88;3.15;;;;;;;7.58;72.25;95622.59;10299483;28;96731;-78
2022/01/04 00:55:28;;;;;;;5.60;3.20;;;;;;;7.57;72.46;95615.75;10286384;28;97770;-78
2022/01/04 01:00:32;;;;;;;5.75;3.20;;;;;;;7.56;72.89;95611.53;10293263;28;96829;-78
2022/01/04 01:05:36;;;;;;;6.30;3.70;;;;;;;7.54;73.19;95600.44;10298181;28;96763;-78
2022/01/04 01:10:46;;;;;;;4.10;2.63;;;;;;;7.51;73.15;95586.91;10280287;28;96786;-78
2022/01/04 01:15:49;;;;;;;4.70;2.78;;;;;;;7.54;73.29;95584.03;10294900;28;97026;-77
2022/01/04 01:20:53;;;;;;;6.32;3.00;;;;;;;7.50;73.83;95593.88;10295912;28;96808;-78
2022/01/04 01:25:57;;;;;;;6.13;3.15;;;;;;;7.48;74.69;95590.63;10279412;28;96746;-78
2022/01/04 01:31:01;;;;;;;5.35;2.55;;;;;;;7.47;74.20;95588.97;10294832;28;96682;-78
2022/01/04 01:36:04;;;;;;;5.88;2.60;;;;;;;7.47;75.20;95588.97;10293656;28;100069;-78
2022/01/04 01:41:09;;;;;;;5.50;2.85;;;;;;;7.52;74.91;95591.16;10284338;28;96950;-78
2022/01/04 01:46:11;;;;;;;3.90;2.78;;;;;;;7.41;74.72;95568.78;10295356;28;96749;-78
2022/01/04 01:51:17;;;;;;;5.85;2.90;;;;;;;7.38;75.77;95562.06;10294056;28;96874;-78
2022/01/04 01:56:21;;;;;;;3.75;2.65;;;;;;;7.36;76.04;95566.59;10281059;28;96808;-78
2022/01/04 02:01:24;;;;;;;4.27;2.43;;;;;;;7.33;76.44;95561.69;10295049;28;99826;-78
2022/01/04 02:06:29;;;;;;;3.72;2.55;;;;;;;7.36;76.22;95561.41;10290981;28;96965;-78
2022/01/04 02:11:33;;;;;;;4.63;2.37;;;;;;;7.27;76.48;95553.66;10290997;28;96965;-78
2022/01/04 02:16:36;;;;;;;4.20;2.67;;;;;;;7.28;76.73;95537.13;10293916;28;96869;-78
2022/01/04 02:21:40;;;;;;;5.90;2.50;;;;;;;7.27;77.38;95544.09;10290596;28;96761;-78
2022/01/04 02:26:43;;;;;;;5.05;2.95;;;;;;;7.26;77.48;95534.66;10288633;28;96906;-78
2022/01/04 02:31:46;;;;;;;4.03;2.58;;;;;;;7.29;77.46;95528.38;10293451;28;96939;-78
2022/01/04 02:36:50;;;;;;;3.33;2.17;;;;;;;7.34;77.77;95526.97;10292506;28;99863;-78
2022/01/04 02:41:53;;;;;;;4.05;3.13;;;;;;;7.29;78.23;95513.59;10290350;28;96815;-78
2022/01/04 02:46:56;;;;;;;4.47;2.85;;;;;;;7.31;78.24;95509.06;10292634;28;99530;-78
2022/01/04 02:52:00;;;;;;;5.40;2.60;;;;;;;7.32;77.86;95502.06;10292782;28;96672;-78
2022/01/04 02:57:04;;;;;;;5.60;2.80;;;;;;;7.26;78.61;95502.66;10267833;28;96894;-78
2022/01/04 03:02:07;;;;;;;3.90;2.50;;;;;;;7.22;78.96;95494.34;10291753;28;96801;-78
2022/01/04 03:07:12;;;;;;;6.57;2.75;;;;;;;7.24;78.92;95479.44;10292249;28;97150;-78
2022/01/04 03:12:15;;;;;;;5.03;2.78;;;;;;;7.23;78.60;95472.59;10273938;28;96863;-78
2022/01/04 03:17:18;;;;;;;5.03;3.03;;;;;;;7.24;78.89;95452.66;10294890;28;96684;-78
2022/01/04 03:22:22;;;;;;;3.97;2.35;;;;;;;7.26;78.92;95438.53;10292551;28;97835;-77
2022/01/04 03:27:25;;;;;;;3.50;2.40;;;;;;;7.26;79.12;95430.75;10278573;28;97543;-77
2022/01/04 03:32:28;;;;;;;4.18;2.72;;;;;;;7.25;78.79;95426.53;10287408;28;96884;-77
2022/01/04 03:37:32;;;;;;;4.28;2.58;;;;;;;7.30;78.98;95410.47;10291704;28;96854;-77
2022/01/04 03:42:35;;;;;;;5.27;2.90;;;;;;;7.27;79.13;95395.19;10279088;28;97313;-77
2022/01/04 03:47:38;;;;;;;4.20;2.72;;;;;;;7.22;79.61;95396.44;10295022;28;96775;-77
2022/01/04 03:52:42;;;;;;;5.00;2.70;;;;;;;7.24;79.32;95411.09;10292393;28;97106;-77
2022/01/04 03:57:45;;;;;;;3.75;2.60;;;;;;;7.27;79.75;95389.97;10276554;28;97390;-77
2022/01/04 04:02:48;;;;;;;4.38;2.88;;;;;;;7.33;79.38;95363.41;10291303;28;96893;-77
2022/01/04 04:07:52;;;;;;;4.30;2.58;;;;;;;7.36;79.49;95342.34;10291916;28;96855;-77
2022/01/04 04:12:55;;;;;;;4.87;3.03;;;;;;;7.34;79.55;95354.66;10282703;28;97552;-77
2022/01/04 04:17:58;;;;;;;5.20;3.20;;;;;;;7.17;80.11;95359.72;10290011;28;96842;-77
2022/01/04 04:23:02;;;;;;;4.93;2.80;;;;;;;7.03;80.26;95378.41;10297329;28;96896;-77
2022/01/04 04:28:05;;;;;;;3.90;2.83;;;;;;;7.06;80.52;95362.53;10290590;28;97831;-77
2022/01/04 04:33:08;;;;;;;4.50;2.80;;;;;;;7.17;80.04;95331.13;10295245;28;96947;-77
2022/01/04 04:38:12;;;;;;;4.18;2.40;;;;;;;7.32;79.96;95331.44;10295639;28;96782;-77
2022/01/04 04:43:15;;;;;;;3.88;2.78;;;;;;;7.41;79.37;95329.72;10290953;28;97680;-77
2022/01/04 04:48:18;;;;;;;3.85;2.83;;;;;;;7.44;79.39;95323.38;10295629;28;96812;-77
2022/01/04 04:53:22;;;;;;;4.82;2.60;;;;;;;7.49;78.89;95324.59;10298286;28;97105;-77
2022/01/04 04:58:25;;;;;;;6.05;3.28;;;;;;;7.47;79.15;95323.91;10291081;28;98659;-77
2022/01/04 05:03:28;;;;;;;4.85;2.80;;;;;;;7.48;79.27;95322.94;10292283;28;96988;-77
2022/01/04 05:08:32;;;;;;;4.65;2.25;;;;;;;7.45;79.46;95310.25;10298127;28;96951;-77
2022/01/04 05:13:35;;;;;;;3.38;2.25;;;;;;;7.39;79.27;95310.88;10289130;28;97361;-77
2022/01/04 05:18:38;;;;;;;4.55;2.15;;;;;;;7.39;79.26;95321.25;10289534;28;97159;-77
2022/01/04 05:23:43;;;;;;;3.17;2.20;;;;;;;7.36;79.50;95317.16;10297395;28;96854;-77
2022/01/04 05:28:46;;;;;;;3.40;2.37;;;;;;;7.31;79.79;95298.63;10289097;28;98119;-77
2022/01/04 05:33:48;;;;;;;3.90;2.15;;;;;;;7.28;79.74;95288.50;10289433;28;96984;-77
2022/01/04 05:38:52;;;;;;;6.50;2.50;;;;;;;7.29;80.04;95279.78;10293144;28;97340;-77
2022/01/04 05:43:55;;;;;;;3.92;2.20;;;;;;;7.22;80.29;95283.94;10285763;28;96851;-77
2022/01/04 05:48:58;;;;;;;4.47;2.67;;;;;;;7.21;80.00;95264.94;10293636;28;96962;-77
2022/01/04 05:54:02;;;;;;;3.85;2.35;;;;;;;7.23;79.77;95275.16;10277495;28;96812;-77
2022/01/04 05:59:06;;;;;;;4.80;2.65;;;;;;;7.26;80.06;95266.25;10289811;28;97587;-77
2022/01/04 06:04:10;;;;;;;5.13;2.47;;;;;;;7.27;79.63;95265.28;10285984;28;96946;-77
2022/01/04 06:09:21;;;;;;;4.40;2.72;;;;;;;7.27;79.91;95252.28;10292338;28;97052;-77
2022/01/04 06:19:44;;;;;;;4.00;2.42;;;;;;;7.30;79.23;95223.41;10292689;28;97009;-77
2022/01/04 06:24:48;;;;;;;4.03;2.42;;;;;;;7.27;79.57;95229.75;10292572;28;99957;-77
2022/01/04 06:29:51;;;;;;;3.70;1.93;;;;;;;7.34;79.37;95229.97;10288464;28;97459;-77
2022/01/04 06:34:54;;;;;;;3.20;2.05;;;;;;;7.39;78.91;95228.53;10294146;28;96772;-77
2022/01/04 06:39:58;;;;;;;2.95;1.90;;;;;;;7.35;78.89;95221.19;10293705;28;96867;-77
2022/01/04 06:45:01;;;;;;;3.08;1.92;;;;;;;7.38;78.50;95205.28;10270943;28;97066;-77
2022/01/04 06:50:05;;;;;;;3.90;2.25;;;;;;;7.43;77.92;95197.84;10291351;28;96884;-77
2022/01/04 06:55:10;;;;;;;6.20;2.17;;;;;;;7.34;77.99;95189.19;10292960;28;97037;-77
2022/01/04 07:00:14;;;;;;;2.90;1.75;;;;;;;7.36;77.72;95181.25;10288757;28;96704;-77
2022/01/04 07:05:17;;;;;;;3.80;1.70;;;;;;;7.56;77.00;95189.63;10284278;28;97986;-77
2022/01/04 07:10:21;;;;;;;2.95;1.90;;;;;;;7.55;77.24;95190.63;10293319;28;96964;-77
2022/01/04 07:15:24;;;;;;;2.88;1.52;;;;;;;7.60;76.72;95172.78;10288383;28;96856;-77
2022/01/04 07:20:27;;;;;;;3.60;1.80;;;;;;;7.63;76.01;95167.28;10288049;28;97301;-77
2022/01/04 07:25:31;;;;;;;2.95;1.60;;;;;;;7.70;74.86;95168.28;10292416;28;97091;-77
2022/01/04 07:30:34;;;;;;;2.00;1.60;;;;;;;7.74;75.49;95153.16;10288035;28;96865;-77
2022/01/04 07:35:38;;;;;;;4.47;1.60;;;;;;;7.93;72.91;95163.31;10288693;28;96756;-77
2022/01/04 07:40:42;;;;;;;3.03;1.92;;;;;;;8.05;72.76;95150.84;10291697;28;96753;-77
2022/01/04 07:45:45;;;;;;;2.72;1.48;;;;;;;8.28;72.09;95158.84;10289967;28;97656;-77
2022/01/04 07:50:49;;;;;;;4.13;1.92;;;;;;;8.34;71.66;95155.59;10269286;28;97269;-77
2022/01/04 07:55:58;;;;;;;2.53;1.58;;;;;;;8.33;72.24;95159.16;10296815;28;96813;-77
2022/01/04 08:01:01;;;;;;;3.35;1.33;;;;;;;8.40;72.51;95148.13;10299708;28;96887;-78
2022/01/04 08:06:05;;;;;;;3.85;1.60;;;;;;;8.54;71.28;95155.28;10285248;28;97136;-77
2022/01/04 08:11:09;;;;;;;2.13;1.48;;;;;;;8.78;69.27;95145.84;10299523;28;99796;-77
2022/01/04 08:16:14;;;;;;;2.63;1.45;;;;;;;8.89;69.55;95148.13;10296764;28;96774;-78
2022/01/04 08:21:17;;;;;;;;;;;;;;;8.95;69.04;95152.69;10291705;28;96775;-77
2022/01/04 08:26:22;;;;;;;2.85;1.45;;;;;;;8.92;68.95;95142.59;10273820;28;98870;-77
2022/01/04 08:31:26;;;;;;;2.73;1.40;;;;;;;8.90;69.91;95140.16;10268978;28;97681;-77
2022/01/04 08:36:29;;;;;;;2.28;1.30;;;;;;;8.95;69.36;95141.44;10279554;28;97322;-77
2022/01/04 08:41:33;;;;;;;2.25;1.52;;;;;;;9.04;69.40;95143.88;10300001;28;98784;-77
2022/01/04 08:46:36;;;;;;;2.80;1.63;;;;;;;9.16;67.33;95148.75;10287248;28;96769;-78
2022/01/04 08:51:39;;;;;;;3.08;1.52;;;;;;;9.13;68.88;95144.69;10295196;28;97066;-80
2022/01/04 08:56:44;;;;;;;2.55;1.30;;;;;;;9.35;67.12;95131.91;10298568;28;96916;-80
2022/01/04 09:01:46;;;;;;;2.23;1.27;;;;;;;9.30;68.10;95143.69;10284557;28;97426;-80
2022/01/04 09:06:50;;;;;;;2.42;1.30;;;;;;;9.26;68.97;95133.75;10286563;28;96892;-80
2022/01/04 09:11:54;;;;;;;2.42;1.50;;;;;;;9.42;67.44;95133.75;10291897;28;96771;-80
2022/01/04 09:22:17;;;;;;;3.42;1.48;;;;;;;9.41;68.28;95106.00;10286791;28;98385;-80
2022/01/04 09:27:21;;;;;;;1.85;1.20;;;;;;;9.52;68.36;95117.88;10289547;28;96770;-79
2022/01/04 09:32:24;;;;;;;3.67;1.70;;;;;;;9.69;66.68;95120.44;10286808;28;98782;-80
2022/01/04 09:37:27;;;;;;;3.10;1.38;;;;;;;9.59;67.54;95108.44;10291809;28;99806;-85
2022/01/04 09:42:32;;;;;;;2.17;1.20;;;;;;;9.50;67.29;95108.63;10291428;28;97228;-79
2022/01/04 09:47:35;;;;;;;1.73;1.33;;;;;;;9.62;66.70;95102.06;10288826;28;97151;-79
2022/01/04 09:52:43;;;;;;;2.22;1.40;;;;;;;9.54;68.56;95091.66;10287659;28;96727;-79
2022/01/04 09:57:48;;;;;;;2.35;1.23;;;;;;;9.59;68.02;95089.34;10285921;28;97408;-79
2022/01/04 10:02:51;;;;;;;;;;;;;;;9.65;68.42;95086.88;10287009;28;97100;-79
2022/01/04 10:08:02;;;;;;;2.45;1.30;;;;;;;9.85;65.67;95076.84;10286591;28;96853;-79
2022/01/04 10:13:08;;;;;;;2.25;1.52;;;;;;;10.13;64.16;95071.13;10286193;28;97438;-79
2022/01/04 10:18:21;;;;;;;2.92;1.20;;;;;;;10.21;65.12;95065.84;10282957;28;97031;-79
2022/01/04 10:23:25;;;;;;;2.72;1.73;;;;;;;10.50;63.23;95063.53;10288652;28;96918;-79
2022/01/04 10:28:31;;;;;;;2.33;1.48;;;;;;;10.69;61.95;95039.50;10285951;28;97424;-79
2022/01/04 10:33:35;;;;;;;2.53;1.48;;;;;;;10.67;63.15;95040.66;10281361;28;96779;-79
2022/01/04 10:38:40;;;;;;;2.93;1.43;;;;;;;10.65;64.84;95024.34;10287825;28;97483;-79
2022/01/04 10:43:45;;;;;;;;;;;;;;;10.59;65.00;95020.66;10285893;28;97273;-79
2022/01/04 10:48:50;;;;;;;3.73;1.20;;;;;;;10.71;64.08;95008.00;10283182;28;97897;-79
2022/01/04 10:53:54;;;;;;;2.75;1.00;;;;;;;10.91;63.56;95001.25;10289837;28;97589;-79
2022/01/04 10:59:01;;;;;;;1.80;1.30;;;;;;;11.07;61.91;94986.34;10283809;28;96875;-79
2022/01/04 11:04:04;;;;;;;2.25;1.08;;;;;;;10.97;64.36;94990.06;10280092;28;98567;-79
2022/01/04 11:09:09;;;;;;;1.90;1.20;;;;;;;11.12;62.27;94971.78;10286508;28;97019;-79
2022/01/04 11:14:14;;;;;;;1.92;1.27;;;;;;;11.20;63.89;94965.63;10286280;28;96840;-79
2022/01/04 11:19:19;;;;;;;3.10;1.45;;;;;;;11.39;64.07;94963.47;10280527;28;96940;-79
2022/01/04 11:24:25;;;;;;;2.38;1.50;;;;;;;11.49;62.92;94954.31;10285942;28;96836;-79
2022/01/04 11:29:34;;;;;;;2.83;1.50;;;;;;;11.56;61.85;94943.94;10290584;28;96920;-79
2022/01/04 11:34:56;;;;;;;2.17;1.30;;;;;;;11.74;62.74;94940.88;10287994;28;98787;-78
2022/01/04 11:40:00;;;;;;;2.83;1.50;;;;;;;11.75;64.16;94926.81;10289257;28;96857;-79
2022/01/04 11:45:07;;;;;;;2.90;1.25;;;;;;;11.87;62.61;94920.06;10293985;28;97094;-79
2022/01/04 11:50:13;;;;;;;3.85;1.63;;;;;;;11.98;62.31;94897.81;10287717;28;97218;-78
2022/01/04 11:55:21;;;;;;;3.58;1.15;;;;;;;11.92;62.84;94898.59;10290266;28;96817;-78
2022/01/04 12:00:28;;;;;;;2.92;1.40;;;;;;;12.02;62.12;94883.34;10288610;28;97272;-78
2022/01/04 12:05:31;;;;;;;1.65;1.10;;;;;;;12.11;61.10;94879.59;10289791;28;96959;-79
2022/01/04 12:10:41;;;;;;;4.35;1.33;;;;;;;12.28;62.15;94880.13;10294160;28;97070;-78
2022/01/04 12:15:47;;;;;;;1.48;1.15;;;;;;;12.41;60.54;94868.91;10298152;28;96912;-78
2022/01/04 12:20:52;;;;;;;3.22;1.40;;;;;;;12.33;61.57;94863.03;10298342;28;96994;-78
2022/01/04 12:26:22;;;;;;;1.77;1.07;;;;;;;12.43;61.16;94866.91;10297642;28;96765;-78
2022/01/04 12:31:27;;;;;;;2.67;1.50;;;;;;;12.50;62.21;94843.38;10296308;28;96901;-78
2022/01/04 12:36:33;;;;;;;2.53;1.30;;;;;;;12.32;64.15;94838.66;10292942;28;97821;-78
2022/01/04 12:41:37;;;;;;;2.80;1.33;;;;;;;12.60;61.74;94841.22;10298366;28;96744;-78
2022/01/04 12:46:48;;;;;;;1.90;1.38;;;;;;;12.67;61.15;94839.44;10297080;28;97745;-78
2022/01/04 12:51:53;;;;;;;4.35;1.80;;;;;;;12.60;59.79;94828.13;10295493;28;96985;-78
2022/01/04 12:56:58;;;;;;;2.47;1.27;;;;;;;12.60;58.47;94835.16;10296291;28;96676;-79
2022/01/04 13:02:04;;;;;;;;;;;;;;;12.38;60.51;94816.91;10297437;28;96900;-78
2022/01/04 13:07:17;;;;;;;2.60;1.60;;;;;;;12.35;59.79;94806.81;10297307;28;96958;-78
2022/01/04 13:12:27;;;;;;;2.70;1.55;;;;;;;12.37;59.13;94807.47;10293124;28;96766;-77
2022/01/04 13:17:32;;;;;;;3.05;1.67;;;;;;;12.31;58.77;94782.03;10291494;28;99099;-77
2022/01/04 13:22:37;;;;;;;2.88;1.80;;;;;;;12.24;61.79;94799.53;10294555;28;96856;-77
2022/01/04 13:27:40;;;;;;;3.35;1.67;;;;;;;12.22;62.45;94806.78;10293034;28;96784;-77
2022/01/04 13:32:47;;;;;;;3.70;1.83;;;;;;;12.09;62.50;94797.84;10297103;28;96837;-77
2022/01/04 13:37:52;;;;;;;3.15;1.80;;;;;;;12.09;62.10;94800.47;10294816;28;97052;-77
2022/01/04 13:43:01;;;;;;;3.10;1.80;;;;;;;12.12;62.10;94789.59;10294433;28;97044;-77
2022/01/04 13:48:06;;;;;;;4.38;1.77;;;;;;;12.19;61.15;94794.06;10277072;28;97291;-77
2022/01/04 13:53:11;;;;;;;3.80;2.03;;;;;;;12.11;61.20;94780.13;10295974;28;96891;-77
2022/01/04 13:58:36;;;;;;;4.68;2.00;;;;;;;12.06;61.32;94772.03;10296206;28;96799;-77
2022/01/04 14:03:41;;;;;;;3.90;2.13;;;;;;;11.92;61.18;94773.78;10291780;28;96953;-77
2022/01/04 14:08:47;;;;;;;4.28;2.30;;;;;;;11.92;60.32;94775.59;10295844;28;96835;-77
2022/01/04 14:13:51;;;;;;;4.00;2.45;;;;;;;11.82;61.14;94762.84;10293678;28;97036;-77
2022/01/04 14:19:08;;;;;;;3.67;2.50;;;;;;;11.69;62.04;94758.34;10293572;28;97115;-77
2022/01/04 14:24:34;;;;;;;4.65;2.53;;;;;;;11.71;61.21;94753.72;10277358;28;97154;-77
2022/01/04 14:29:39;;;;;;;4.53;2.30;;;;;;;11.70;61.69;94751.28;10293712;28;97298;-77
2022/01/04 14:34:43;;;;;;;;;;;;;;;11.73;61.79;94751.72;10294110;28;97249;-77
2022/01/04 14:39:46;;;;;;;4.65;2.28;;;;;;;11.77;61.09;94748.72;10292036;28;96898;-77
2022/01/04 14:44:49;;;;;;;4.60;2.65;;;;;;;11.78;60.81;94742.47;10294267;28;96887;-77
2022/01/04 14:49:53;;;;;;;2.75;2.00;;;;;;;11.65;61.54;94749.25;10293704;28;97272;-77
2022/01/04 14:54:58;;;;;;;7.25;2.97;;;;;;;11.62;61.81;94718.22;10293356;28;96706;-77
2022/01/04 15:00:05;;;;;;;4.03;2.00;;;;;;;11.49;62.68;94723.38;10274885;28;96710;-77
2022/01/04 15:05:10;;;;;;;3.80;2.38;;;;;;;11.47;62.95;94714.94;10293866;28;97000;-77
2022/01/04 15:10:13;;;;;;;4.32;2.85;;;;;;;11.44;62.83;94710.88;10293054;28;96915;-77
2022/01/04 15:15:16;;;;;;;4.78;2.40;;;;;;;11.53;61.84;94729.84;10290320;28;96698;-77
2022/01/04 15:20:20;;;;;;;4.53;2.80;;;;;;;11.38;62.42;94734.34;10294380;28;96830;-77
2022/01/04 15:25:25;;;;;;;4.95;3.15;;;;;;;11.26;62.93;94734.03;10292421;28;96916;-77
2022/01/04 15:30:29;;;;;;;4.93;3.33;;;;;;;11.09;64.04;94752.59;10288547;28;96977;-77
2022/01/04 15:35:34;;;;;;;;;;;;;;;10.95;64.85;94737.81;10288061;28;96719;-77
2022/01/04 15:40:38;;;;;;;3.67;2.70;;;;;;;10.93;63.51;94751.03;10292956;28;96807;-77
2022/01/04 15:45:41;;;;;;;5.10;2.97;;;;;;;10.87;64.97;94757.00;10288784;28;96800;-77
2022/01/04 15:50:48;;;;;;;5.40;3.47;;;;;;;10.73;65.75;94761.28;10293402;28;96726;-77
2022/01/04 15:55:52;;;;;;;4.38;2.42;;;;;;;10.77;64.88;94746.03;10286814;28;97387;-77
2022/01/04 16:00:55;;;;;;;4.18;2.75;;;;;;;10.77;65.55;94746.88;10289439;28;96871;-77
2022/01/04 16:05:59;;;;;;;4.25;2.30;;;;;;;10.78;65.61;94752.91;10291043;28;96691;-77
2022/01/04 16:11:06;;;;;;;4.38;2.58;;;;;;;10.88;64.62;94758.63;10294148;28;96854;-77
2022/01/04 16:16:14;;;;;;;3.40;2.30;;;;;;;10.85;64.56;94766.84;10293437;28;97888;-77
2022/01/04 16:21:36;;;;;;;5.68;2.78;;;;;;;10.74;65.04;94762.13;10295954;28;96737;-77
2022/01/04 16:26:42;;;;;;;5.53;3.08;;;;;;;10.63;65.81;94759.97;10294542;28;96759;-77
2022/01/04 16:31:46;;;;;;;4.68;2.97;;;;;;;10.49;66.94;94765.03;10298053;28;99958;-77
2022/01/04 16:36:53;;;;;;;5.45;3.20;;;;;;;10.41;66.96;94767.78;10296424;28;96946;-77
2022/01/04 16:41:58;;;;;;;5.25;3.22;;;;;;;10.34;66.41;94746.81;10297274;28;97116;-77
2022/01/04 16:47:01;;;;;;;7.10;3.13;;;;;;;10.32;66.47;94753.19;10295273;28;96851;-77
2022/01/04 16:52:06;;;;;;;7.00;3.28;;;;;;;10.31;66.68;94748.97;10297564;28;96870;-76
2022/01/04 16:57:10;;;;;;;9.13;3.90;;;;;;;10.26;67.37;94733.84;10295263;28;97304;-77
2022/01/04 17:02:13;;;;;;;4.95;3.45;;;;;;;10.21;67.75;94733.59;10297637;28;96947;-77
2022/01/04 17:07:37;;;;;;;4.97;2.88;;;;;;;10.17;67.40;94740.97;10297212;28;97218;-77
2022/01/04 17:15:32;;;;;;;5.50;2.90;;;;;;;10.12;67.31;94737.28;10293994;28;96708;-77
2022/01/04 17:18:13;;;;;;;4.60;2.90;;;;;;;10.23;66.24;94732.44;10280242;28;96806;-77
2022/01/04 17:23:18;;;;;;;5.22;2.72;;;;;;;10.35;66.07;94719.69;10297882;28;96881;-77
2022/01/04 17:28:21;;;;;;;;;;;;;;;10.36;66.57;94717.91;10292726;28;96688;-77
2022/01/04 17:33:24;;;;;;;5.88;3.22;;;;;;;10.40;65.82;94729.59;10292775;28;97032;-77
2022/01/04 17:38:28;;;;;;;6.55;3.20;;;;;;;10.45;65.89;94726.44;10297612;28;97343;-77
2022/01/04 17:43:31;;;;;;;4.50;2.90;;;;;;;10.52;65.57;94732.53;10294907;28;97099;-77
2022/01/04 17:48:34;;;;;;;5.15;2.90;;;;;;;10.57;65.27;94722.34;10291793;28;96820;-77
2022/01/04 17:53:38;;;;;;;4.53;3.28;;;;;;;10.59;64.83;94713.31;10293077;28;96880;-77
2022/01/04 17:59:00;;;;;;;6.68;3.00;;;;;;;10.67;65.11;94719.41;10291431;28;96888;-77
2022/01/04 18:04:03;;;;;;;5.32;2.85;;;;;;;10.68;65.02;94713.22;10293285;28;101739;-77
2022/01/04 18:09:08;;;;;;;4.78;2.78;;;;;;;10.69;65.10;94713.03;10292134;28;97380;-77
2022/01/04 18:14:11;;;;;;;5.50;3.00;;;;;;;10.69;64.69;94718.25;10294455;28;96876;-77
2022/01/04 18:19:13;;;;;;;5.68;2.92;;;;;;;10.72;64.26;94717.06;10293296;28;96809;-77
2022/01/04 18:24:18;;;;;;;5.10;2.83;;;;;;;10.73;64.02;94710.84;10292057;28;96707;-77
2022/01/04 18:29:21;;;;;;;4.80;2.50;;;;;;;10.77;63.81;94725.16;10295405;28;96763;-77
2022/01/04 18:34:23;;;;;;;5.35;3.33;;;;;;;10.77;63.94;94715.53;10294730;28;96843;-77
2022/01/04 18:39:28;;;;;;;5.63;2.47;;;;;;;10.81;63.93;94710.75;10288921;28;98343;-77
2022/01/04 18:44:30;;;;;;;6.00;3.03;;;;;;;10.81;63.87;94721.19;10288827;28;97842;-77
2022/01/04 18:49:34;;;;;;;4.45;2.80;;;;;;;10.76;64.30;94706.06;10294039;28;97221;-77
2022/01/04 18:54:39;;;;;;;5.03;2.95;;;;;;;10.78;64.11;94692.81;10290357;28;96760;-78
2022/01/04 18:59:42;;;;;;;4.20;2.67;;;;;;;10.83;63.93;94684.44;10294840;28;96673;-77
2022/01/04 19:04:45;;;;;;;5.25;2.75;;;;;;;10.78;65.11;94706.69;10293863;28;97004;-78
2022/01/04 19:09:50;;;;;;;6.18;2.80;;;;;;;10.65;64.92;94706.53;10291397;28;96899;-78
2022/01/04 19:14:53;;;;;;;3.97;2.70;;;;;;;10.61;65.59;94684.41;10293267;28;97185;-78
2022/01/04 19:19:56;;;;;;;6.00;2.83;;;;;;;10.58;65.49;94683.00;10292003;28;96829;-78
2022/01/04 19:25:00;;;;;;;5.22;3.10;;;;;;;10.53;65.21;94680.13;10292264;28;98401;-78
2022/01/04 19:30:07;;;;;;;5.53;3.37;;;;;;;10.50;64.93;94675.28;10274232;28;96946;-78
2022/01/04 19:40:34;;;;;;;7.45;3.30;;;;;;;10.50;65.25;94671.88;10291960;28;97110;-78
2022/01/04 19:45:37;;;;;;;6.90;3.40;;;;;;;10.38;65.63;94661.09;10288811;28;96765;-78
2022/01/04 19:50:41;;;;;;;5.30;3.17;;;;;;;10.37;66.29;94664.69;10297492;28;96698;-78
2022/01/04 19:55:46;;;;;;;5.60;3.38;;;;;;;10.32;66.65;94659.22;10299712;28;96938;-78
2022/01/04 20:00:50;;;;;;;6.88;3.17;;;;;;;10.27;66.67;94649.34;10297401;28;96972;-78
2022/01/04 20:05:53;;;;;;;5.45;3.22;;;;;;;10.24;67.25;94645.28;10299043;28;97123;-78
2022/01/04 20:10:58;;;;;;;7.72;3.60;;;;;;;10.18;68.14;94638.22;10296822;28;96792;-78
2022/01/04 20:16:01;;;;;;;6.87;3.40;;;;;;;10.14;68.90;94647.38;10298768;28;96840;-78
2022/01/04 20:21:08;;;;;;;7.60;4.18;;;;;;;10.02;70.30;94638.44;10281331;28;97087;-78
2022/01/04 20:26:13;;;;;;;9.65;4.50;;;;;;;9.92;71.54;94637.91;10299538;28;99054;-78
2022/01/04 20:31:16;;;;;;;6.13;3.92;;;;;;;9.88;71.30;94636.66;10298265;28;96854;-78
2022/01/04 20:36:20;;;;;;;5.60;3.58;;;;;;;9.73;72.08;94641.88;10294562;28;96719;-78
2022/01/04 20:41:24;;;;;;;5.40;3.78;;;;;;;9.59;73.00;94646.94;10300492;28;101923;-78
2022/01/04 20:46:27;;;;;;;7.00;3.83;;;;;;;9.50;73.58;94655.84;10298112;28;97241;-78
2022/01/04 20:51:30;;;;;;;6.07;3.63;;;;;;;9.48;73.73;94663.03;10292760;28;96921;-78
2022/01/04 20:56:34;;;;;;;6.68;3.42;;;;;;;9.46;73.88;94665.81;10300066;28;96910;-78
2022/01/04 21:01:37;;;;;;;5.57;3.63;;;;;;;9.41;74.05;94673.31;10294737;28;96704;-78
2022/01/04 21:06:40;;;;;;;5.20;3.17;;;;;;;9.34;74.34;94682.84;10293680;28;96675;-78
2022/01/04 21:11:45;;;;;;;6.28;3.50;;;;;;;9.31;74.45;94685.81;10294173;28;97088;-78
2022/01/04 21:16:48;;;;;;;4.63;2.60;;;;;;;9.22;74.60;94690.28;10291697;28;97146;-78
2022/01/04 21:21:51;;;;;;;4.75;2.60;;;;;;;9.14;74.37;94707.78;10294753;28;97019;-78
2022/01/04 21:26:55;;;;;;;3.03;2.10;;;;;;;9.12;74.83;94723.59;10296107;28;97196;-78
2022/01/04 21:31:58;;;;;;;2.40;1.80;;;;;;;9.04;74.07;94728.91;10295800;28;96825;-78
2022/01/04 21:37:03;;;;;;;0.63;0.50;;;;;;;8.96;73.12;94747.97;10295657;28;96665;-78
2022/01/04 21:42:08;;;;;;;0.20;0.20;;;;;;;8.84;72.34;94731.16;10277313;28;96985;-78
2022/01/04 21:47:11;;;;;;;0.50;0.20;;;;;;;8.78;72.05;94745.69;10296608;28;96909;-78
2022/01/04 21:52:14;;;;;;;0.25;0.17;;;;;;;8.75;71.92;94751.22;10294631;28;96718;-78
2022/01/04 21:57:18;;;;;;;0.10;0.10;;;;;;;8.76;71.19;94758.06;10292302;28;96670;-78
2022/01/04 22:02:21;;;;;;;0.00;0.00;;;;;;;8.49;68.91;94773.16;10297298;28;97099;-78
2022/01/04 22:07:25;;;;;;;0.00;0.00;;;;;;;8.02;68.50;94755.03;10294754;28;96875;-78
2022/01/04 22:12:29;;;;;;;0.98;0.10;;;;;;;7.96;69.51;94757.31;10290559;28;96873;-78
2022/01/04 22:17:32;;;;;;;0.08;0.00;;;;;;;7.98;69.04;94759.75;10288837;28;97370;-78
2022/01/04 22:22:35;;;;;;;0.03;0.03;;;;;;;7.87;68.29;94778.31;10294374;28;96847;-78
2022/01/04 22:27:39;;;;;;;0.10;0.00;;;;;;;7.59;67.20;94787.28;10291540;28;96819;-78
2022/01/04 22:32:43;;;;;;;;;;;;;;;7.44;67.30;94775.97;10295838;28;96771;-78
2022/01/04 22:37:46;;;;;;;0.10;0.00;;;;;;;6.90;67.36;94817.94;10294056;28;97219;-78
2022/01/04 22:42:50;;;;;;;0.00;0.00;;;;;;;6.63;67.98;94764.53;10291807;28;97042;-78
2022/01/04 22:47:53;;;;;;;0.00;0.00;;;;;;;6.51;68.92;94768.41;10293742;28;96926;-78
2022/01/04 22:52:56;;;;;;;0.00;0.00;;;;;;;6.44;68.37;94763.84;10293508;28;96991;-78
2022/01/04 22:58:01;;;;;;;0.52;0.00;;;;;;;6.49;67.91;94755.59;10293566;28;96744;-78
2022/01/04 23:03:04;;;;;;;0.00;0.00;;;;;;;6.53;67.79;94753.50;10276030;28;96886;-78
2022/01/04 23:08:07;;;;;;;0.10;0.00;;;;;;;6.51;68.65;94776.19;10290769;28;96855;-78
2022/01/04 23:13:11;;;;;;;0.10;0.00;;;;;;;6.51;68.47;94802.13;10289084;28;97185;-78
2022/01/04 23:18:14;;;;;;;0.10;0.03;;;;;;;6.47;67.87;94781.69;10291302;28;96751;-78
2022/01/04 23:23:17;;;;;;;0.00;0.00;;;;;;;6.56;68.28;94792.91;10294014;28;97065;-78
2022/01/04 23:28:21;;;;;;;0.03;0.00;;;;;;;6.62;67.39;94787.09;10302778;28;97145;-78
2022/01/04 23:33:25;;;;;;;0.00;0.00;;;;;;;6.62;67.49;94791.44;10301657;28;97010;-78
2022/01/04 23:38:28;;;;;;;0.00;0.00;;;;;;;6.66;66.65;94803.16;10309224;28;96905;-78
2022/01/04 23:43:32;;;;;;;0.00;0.00;;;;;;;6.66;66.85;94792.78;10306030;28;96913;-78
2022/01/04 23:48:35;;;;;;;0.07;0.00;;;;;;;6.66;66.62;94816.13;10301315;28;96798;-78
2022/01/04 23:53:38;;;;;;;0.10;0.00;;;;;;;6.64;67.21;94851.78;10307279;28;96689;-78
2022/01/04 23:58:42;;;;;;;0.75;0.00;;;;;;;6.39;69.43;94862.06;10305159;28;96747;-78
